Time;durP1;ratioP1;P1;durP2;ratioP2;P2;SDS_P1;SDS_P2;PMS_P1;PMS_P2;Temp;Humidity;BMP_temperature;BMP_pressure;BME280_temperature;BME280_humidity;BME280_pressure;Samples;Min_cycle;Max_cycle;Signal;HPM_P1;HPM_P2
2021/03/04 00:00:40;;;;;;;13.48;7.53;;;9.30;65.60;;;8.73;46.61;95481.44;5095193;28;20216;-83
2021/03/04 00:03:08;;;;;;;15.30;7.57;;;9.30;65.70;;;8.73;46.72;95474.38;5078352;28;20301;-81
2021/03/04 00:05:35;;;;;;;14.82;8.02;;;9.30;65.70;;;8.69;46.62;95464.41;5077680;28;20222;-81
2021/03/04 00:08:04;;;;;;;13.50;7.75;;;9.30;65.60;;;8.71;46.39;95465.88;5078090;28;20300;-81
2021/03/04 00:10:31;;;;;;;15.32;7.88;;;9.30;65.30;;;8.74;46.73;95464.72;5078121;28;20219;-80
2021/03/04 00:12:59;;;;;;;14.00;7.60;;;9.30;65.50;;;8.71;46.38;95460.66;5078006;28;20205;-83
2021/03/04 00:15:32;;;;;;;16.00;7.32;;;9.30;65.50;;;8.73;46.43;95457.88;5077948;28;20222;-84
2021/03/04 00:17:59;;;;;;;11.75;8.05;;;9.30;65.10;;;8.66;46.16;95444.66;5061491;28;20264;-83
2021/03/04 00:20:30;;;;;;;15.77;8.35;;;9.30;65.30;;;8.70;45.74;95452.97;5077883;28;20214;-83
2021/03/04 00:22:57;;;;;;;13.82;8.30;;;9.30;65.00;;;8.71;44.98;95457.22;5061336;28;20198;-84
2021/03/04 00:25:31;;;;;;;16.42;8.85;;;9.40;64.90;;;8.75;45.40;95442.81;5077627;28;20218;-83
2021/03/04 00:27:58;;;;;;;12.68;7.82;;;9.30;64.90;;;8.76;45.74;95447.91;5078103;28;20640;-84
2021/03/04 00:30:26;;;;;;;11.23;7.10;;;9.40;65.00;;;8.76;45.38;95441.84;5077911;28;20230;-83
2021/03/04 00:32:54;;;;;;;14.23;7.95;;;9.30;64.80;;;8.72;45.18;95435.31;5077808;28;20559;-84
2021/03/04 00:35:21;;;;;;;14.40;8.25;;;9.30;64.60;;;8.71;45.30;95437.09;5061261;28;20205;-83
2021/03/04 00:37:48;;;;;;;14.93;8.27;;;9.30;64.60;;;8.69;45.42;95430.41;5093769;28;20197;-83
2021/03/04 00:40:20;;;;;;;13.07;7.50;;;9.30;64.50;;;8.67;45.41;95435.00;5094553;28;20199;-83
2021/03/04 00:42:47;;;;;;;15.35;8.48;;;9.30;64.60;;;8.64;44.37;95418.66;5077815;28;20202;-83
2021/03/04 00:45:21;;;;;;;16.17;9.27;;;9.30;64.30;;;8.67;44.91;95422.75;5077552;28;20203;-84
2021/03/04 00:48:10;;;;;;;14.43;8.20;;;9.30;64.20;;;8.64;44.86;95429.13;5079972;28;20725;-84
2021/03/04 00:50:41;;;;;;;15.35;8.45;;;9.30;64.40;;;8.58;44.96;95418.50;5094372;28;20218;-82
2021/03/04 00:53:08;;;;;;;12.73;7.97;;;9.30;64.40;;;8.55;45.19;95424.88;5077292;28;20206;-83
2021/03/04 00:55:35;;;;;;;14.23;8.15;;;9.30;64.50;;;8.49;45.39;95415.94;5076964;28;20225;-82
2021/03/04 00:58:02;;;;;;;16.10;9.07;;;9.20;64.30;;;8.47;44.88;95417.06;5076805;28;20544;-84
2021/03/04 01:00:29;;;;;;;13.43;8.55;;;9.20;64.30;;;8.43;45.37;95413.13;5077049;28;20221;-84
2021/03/04 01:02:56;;;;;;;12.98;8.02;;;9.20;64.30;;;8.41;45.12;95402.00;5077541;28;20219;-83
2021/03/04 01:05:24;;;;;;;14.10;8.25;;;9.20;64.60;;;8.44;45.37;95412.13;5076733;28;20198;-83
2021/03/04 01:07:52;;;;;;;13.55;7.45;;;9.10;64.50;;;8.37;45.83;95409.34;5077156;28;20253;-83
2021/03/04 01:10:32;;;;;;;14.65;8.07;;;9.10;64.60;;;8.30;45.95;95403.16;5058886;28;20281;-82
2021/03/04 01:12:59;;;;;;;14.43;8.05;;;9.10;64.70;;;8.26;45.70;95415.75;5073643;28;20195;-83
2021/03/04 01:15:26;;;;;;;14.50;9.38;;;9.00;64.60;;;8.20;45.69;95410.38;5045302;28;20211;-84
2021/03/04 01:32:28;;;;;;;18.60;9.35;;;8.80;64.80;;;7.74;46.29;95385.56;5074896;28;20715;-83
2021/03/04 01:34:55;;;;;;;15.48;9.60;;;8.70;64.70;;;7.76;46.38;95388.00;5056452;28;20204;-83
2021/03/04 01:37:22;;;;;;;14.88;8.23;;;8.60;64.80;;;7.79;46.19;95395.53;5067934;28;20218;-83
2021/03/04 01:39:49;;;;;;;16.35;9.75;;;8.60;64.90;;;7.79;46.52;95380.66;5060000;28;20205;-83
2021/03/04 01:42:16;;;;;;;14.95;9.25;;;8.60;65.00;;;7.79;46.45;95383.28;5060100;28;20250;-83
2021/03/04 01:44:43;;;;;;;17.42;10.30;;;8.50;65.10;;;7.79;46.33;95375.44;5076260;28;20315;-83
2021/03/04 01:47:10;;;;;;;15.77;9.93;;;8.50;65.10;;;7.82;46.43;95372.50;5059698;28;20791;-83
2021/03/04 01:49:40;;;;;;;15.48;9.15;;;8.50;65.10;;;7.88;46.45;95378.84;5076490;28;20193;-84
2021/03/04 01:52:08;;;;;;;18.35;9.80;;;8.50;65.20;;;7.88;46.20;95373.63;5076059;28;20214;-82
2021/03/04 01:54:35;;;;;;;17.25;10.65;;;8.50;65.20;;;7.90;46.60;95376.91;5056243;28;20195;-84
2021/03/04 01:57:03;;;;;;;15.63;10.30;;;8.60;65.50;;;7.94;46.63;95365.16;5056086;28;20390;-80
2021/03/04 01:59:30;;;;;;;17.80;10.57;;;8.60;65.40;;;7.94;46.35;95361.72;5056180;28;20191;-81
2021/03/04 02:01:57;;;;;;;18.80;10.35;;;8.50;65.40;;;7.94;46.68;95361.72;5070465;28;20268;-81
2021/03/04 02:04:24;;;;;;;21.10;11.43;;;8.60;65.50;;;7.99;46.34;95372.50;5075801;28;20263;-83
2021/03/04 02:07:24;;;;;;;18.17;11.98;;;8.60;65.40;;;8.00;46.87;95361.06;5075605;28;20241;-83
2021/03/04 02:10:04;;;;;;;21.73;13.30;;;8.60;65.50;;;7.97;46.75;95353.56;5092378;28;20195;-84
2021/03/04 02:12:43;;;;;;;18.42;12.30;;;8.70;65.40;;;7.98;46.85;95353.41;5075747;28;20198;-83
2021/03/04 02:15:19;;;;;;;22.60;12.40;;;8.60;65.30;;;8.01;46.83;95340.00;5075762;28;20248;-84
2021/03/04 02:17:49;;;;;;;21.42;11.75;;;8.60;65.50;;;8.07;46.78;95348.16;5075957;28;20251;-84
2021/03/04 02:21:13;;;;;;;23.17;13.07;;;8.70;65.60;;;8.01;46.71;95339.19;5071958;28;20202;-83
2021/03/04 02:24:13;;;;;;;20.58;12.35;;;8.70;65.60;;;8.04;46.58;95343.28;5017676;28;20216;-84
2021/03/04 02:26:43;;;;;;;20.98;13.48;;;8.70;65.60;;;8.01;46.77;95339.19;5034510;28;20226;-81
2021/03/04 02:29:19;;;;;;;22.05;12.55;;;8.70;65.60;;;7.99;46.59;95336.72;5074510;28;20657;-84
2021/03/04 02:31:48;;;;;;;20.42;12.05;;;8.70;65.60;;;7.99;46.96;95336.72;5055489;28;20234;-84
2021/03/04 02:34:17;;;;;;;18.48;12.35;;;8.70;65.60;;;7.96;46.95;95331.84;5072266;28;20195;-84
2021/03/04 02:36:46;;;;;;;22.52;13.25;;;8.70;65.60;;;7.90;46.78;95329.91;5058026;28;20252;-82
2021/03/04 02:39:16;;;;;;;23.10;12.90;;;8.60;65.50;;;7.89;47.26;95322.25;5075360;28;20286;-83
2021/03/04 02:41:44;;;;;;;25.17;14.48;;;8.60;65.60;;;7.87;47.09;95317.16;5081335;28;20223;-83
2021/03/04 02:44:13;;;;;;;20.98;13.05;;;8.70;65.60;;;7.90;47.21;95316.00;5060865;28;20210;-81
2021/03/04 02:46:41;;;;;;;23.15;12.77;;;8.60;65.60;;;7.89;47.22;95311.78;5109068;28;20214;-81
2021/03/04 02:49:09;;;;;;;23.80;14.63;;;8.60;65.60;;;7.84;47.27;95314.88;5091896;28;20213;-81
2021/03/04 02:51:38;;;;;;;22.45;12.88;;;8.60;65.50;;;7.87;47.17;95309.31;5054715;28;20273;-80
2021/03/04 02:54:06;;;;;;;22.45;13.75;;;8.60;65.60;;;7.81;46.98;95296.94;5071844;28;20635;-81
2021/03/04 02:56:35;;;;;;;22.50;13.30;;;8.50;65.60;;;7.86;47.18;95302.50;5055208;28;20211;-81
2021/03/04 02:59:06;;;;;;;23.48;13.93;;;8.50;65.50;;;7.83;46.79;95297.59;5071779;28;20229;-80
2021/03/04 03:01:35;;;;;;;23.10;13.68;;;8.60;65.60;;;7.88;47.06;95303.13;5071298;28;20210;-83
2021/03/04 03:04:04;;;;;;;21.77;13.15;;;8.50;65.50;;;7.90;47.29;95301.16;5055122;28;20290;-83
2021/03/04 03:06:34;;;;;;;21.45;13.00;;;8.50;65.60;;;7.89;46.65;95296.94;5071388;28;20223;-83
2021/03/04 03:09:03;;;;;;;18.27;11.93;;;8.50;65.40;;;7.91;47.07;95297.59;5038803;28;20191;-84
2021/03/04 03:11:31;;;;;;;20.63;12.23;;;8.60;65.90;;;7.85;46.98;95296.44;5038807;28;20270;-83
2021/03/04 03:13:58;;;;;;;23.75;13.10;;;8.50;65.50;;;7.91;47.09;95300.19;5055026;28;20257;-84
2021/03/04 03:16:27;;;;;;;18.65;11.40;;;8.70;65.60;;;7.90;47.37;95301.16;5055239;28;20211;-83
2021/03/04 03:18:58;;;;;;;20.60;12.68;;;8.50;65.50;;;7.85;46.87;95286.00;5039889;28;20207;-84
2021/03/04 03:21:25;;;;;;;21.85;11.77;;;8.50;65.50;;;7.84;47.18;95281.75;5061177;28;20219;-83
2021/03/04 03:23:52;;;;;;;19.55;12.85;;;8.50;65.50;;;7.79;47.11;95273.59;5044587;28;20690;-83
2021/03/04 03:26:18;;;;;;;19.98;13.32;;;8.50;65.40;;;7.83;47.09;95269.66;5045020;28;20211;-83
2021/03/04 03:28:45;;;;;;;17.83;11.13;;;8.50;65.50;;;7.81;47.02;95268.19;5061140;28;20617;-83
2021/03/04 03:31:14;;;;;;;20.17;11.38;;;8.50;65.50;;;7.80;47.10;95277.00;5044702;28;20272;-83
2021/03/04 03:33:41;;;;;;;18.10;10.52;;;8.50;65.50;;;7.77;46.94;95279.97;5044942;28;20249;-84
2021/03/04 03:36:09;;;;;;;17.67;10.70;;;8.50;65.70;;;7.69;47.31;95272.97;5077863;28;20221;-84
2021/03/04 03:38:37;;;;;;;18.55;11.80;;;8.40;65.60;;;7.65;46.81;95272.47;5057958;28;20237;-83
2021/03/04 03:41:05;;;;;;;18.17;11.15;;;8.40;65.50;;;7.57;47.08;95275.09;5098223;28;20226;-82
2021/03/04 03:43:35;;;;;;;19.23;11.30;;;8.40;65.40;;;7.58;47.25;95270.66;5065551;28;20222;-84
2021/03/04 03:46:03;;;;;;;18.15;10.88;;;8.40;65.50;;;7.53;47.27;95266.78;5064763;28;20214;-83
2021/03/04 03:48:31;;;;;;;20.98;11.45;;;8.30;65.60;;;7.56;47.57;95270.03;5081508;28;20209;-82
2021/03/04 03:50:58;;;;;;;21.95;11.50;;;8.30;65.60;;;7.55;47.39;95269.22;5098078;28;20217;-83
2021/03/04 03:53:26;;;;;;;21.40;11.80;;;8.30;65.70;;;7.51;47.36;95260.88;5081115;28;20209;-82
2021/03/04 03:55:55;;;;;;;18.42;11.10;;;8.20;65.60;;;7.49;47.20;95260.22;5081658;28;20667;-82
2021/03/04 03:58:25;;;;;;;17.38;11.35;;;8.20;65.80;;;7.44;47.45;95253.88;5064627;28;20202;-84
2021/03/04 04:00:56;;;;;;;21.15;11.40;;;8.20;65.80;;;7.43;47.50;95253.06;5114811;28;20224;-84
2021/03/04 04:03:24;;;;;;;17.02;10.98;;;8.20;65.70;;;7.35;47.48;95246.06;5081330;28;20225;-84
2021/03/04 04:05:53;;;;;;;20.55;11.93;;;8.20;65.80;;;7.41;47.60;95248.97;5081451;28;20688;-83
2021/03/04 04:08:23;;;;;;;18.08;11.20;;;8.20;65.90;;;7.35;47.56;95246.06;5064457;28;20809;-83
2021/03/04 04:10:50;;;;;;;19.42;11.55;;;8.10;65.90;;;7.33;47.34;95253.22;5098319;28;20726;-82
2021/03/04 04:13:18;;;;;;;18.08;11.02;;;8.10;65.90;;;7.30;47.66;95261.38;5065019;28;20239;-82
2021/03/04 04:15:45;;;;;;;22.23;11.05;;;8.10;65.90;;;7.26;47.45;95259.25;5098025;28;20214;-83
2021/03/04 04:18:14;;;;;;;19.20;11.85;;;8.00;65.90;;;7.21;47.51;95257.13;5081399;28;20302;-83
2021/03/04 04:20:48;;;;;;;21.15;11.60;;;8.00;65.90;;;7.18;47.66;95257.47;5081919;28;20563;-83
2021/03/04 04:23:16;;;;;;;17.23;10.75;;;8.00;66.00;;;7.11;47.74;95246.84;5080311;28;20198;-83
2021/03/04 04:25:49;;;;;;;19.75;10.98;;;7.90;66.00;;;7.12;47.55;95250.28;5064619;28;20222;-83
2021/03/04 04:28:17;;;;;;;16.15;9.73;;;7.90;66.00;;;7.07;47.91;95242.13;5058334;28;20199;-83
2021/03/04 04:30:45;;;;;;;15.80;10.15;;;7.90;66.10;;;7.02;47.91;95238.22;5058130;28;20596;-84
2021/03/04 04:33:13;;;;;;;17.77;11.95;;;7.80;66.00;;;7.00;47.87;95247.19;5067318;28;20199;-82
2021/03/04 04:35:40;;;;;;;18.85;11.88;;;7.80;66.00;;;7.00;48.37;95249.78;5047558;28;20748;-82
2021/03/04 04:38:08;;;;;;;21.33;11.65;;;7.80;66.10;;;6.98;48.19;95238.69;5081423;28;20219;-82
2021/03/04 04:40:35;;;;;;;19.55;12.13;;;7.80;66.20;;;6.96;48.22;95245.88;5059353;28;20260;-82
2021/03/04 04:43:02;;;;;;;18.38;11.57;;;7.70;66.20;;;6.97;48.29;95247.50;5066901;28;20203;-82
2021/03/04 04:45:28;;;;;;;18.58;12.23;;;7.70;66.20;;;6.95;48.11;95241.63;5075893;28;20250;-83
2021/03/04 04:47:55;;;;;;;21.35;12.45;;;7.70;66.40;;;6.94;48.30;95242.59;5092413;28;20191;-83
2021/03/04 04:50:22;;;;;;;19.13;11.63;;;7.70;66.30;;;6.97;48.48;95237.06;5070788;28;20218;-83
2021/03/04 04:52:49;;;;;;;21.73;13.32;;;7.70;66.50;;;6.98;48.66;95236.09;5068732;28;20616;-82
2021/03/04 04:55:16;;;;;;;21.20;11.95;;;7.70;66.50;;;7.03;48.59;95228.59;5065098;28;20280;-82
2021/03/04 04:57:43;;;;;;;23.40;13.07;;;7.70;66.50;;;7.07;48.10;95229.91;5064887;28;20199;-82
2021/03/04 05:00:10;;;;;;;21.92;12.15;;;7.70;66.50;;;7.11;48.35;95226.00;5065070;28;20249;-82
2021/03/04 05:02:38;;;;;;;20.65;12.77;;;7.70;66.50;;;7.15;47.98;95216.03;5067968;28;20228;-83
2021/03/04 05:05:07;;;;;;;21.35;12.82;;;7.80;66.60;;;7.14;48.01;95204.81;5073717;28;20226;-83
2021/03/04 05:07:35;;;;;;;24.17;14.10;;;7.80;66.50;;;7.21;48.16;95210.19;5070655;28;20210;-83
2021/03/04 05:10:07;;;;;;;23.63;14.43;;;7.80;66.50;;;7.26;48.10;95204.47;5090888;28;20199;-84
2021/03/04 05:12:35;;;;;;;24.40;14.68;;;7.80;66.50;;;7.29;47.96;95212.78;5084802;28;20191;-84
2021/03/04 05:15:05;;;;;;;25.42;15.23;;;7.90;66.50;;;7.33;48.30;95205.44;5044047;28;20187;-84
2021/03/04 05:17:32;;;;;;;24.45;14.80;;;7.90;66.60;;;7.29;48.15;95198.94;5075734;28;20561;-83
2021/03/04 05:19:59;;;;;;;21.17;13.52;;;8.00;66.60;;;7.40;47.89;95202.97;5075964;28;20294;-84
2021/03/04 05:22:26;;;;;;;23.73;13.88;;;7.90;66.50;;;7.45;48.04;95204.13;5076740;28;20214;-83
2021/03/04 05:24:52;;;;;;;22.23;13.38;;;8.00;66.60;;;7.44;47.87;95196.47;5076722;28;20214;-82
2021/03/04 05:27:22;;;;;;;20.83;12.82;;;8.10;66.60;;;7.50;48.04;95199.22;5060047;28;20225;-82
2021/03/04 05:29:54;;;;;;;19.63;12.38;;;8.10;66.50;;;7.53;47.42;95201.53;5093367;28;20270;-83
2021/03/04 05:32:21;;;;;;;21.58;12.45;;;8.10;66.40;;;7.55;48.03;95190.09;5076623;28;20758;-82
2021/03/04 05:34:47;;;;;;;23.23;13.50;;;8.20;66.50;;;7.56;47.66;95191.75;5076599;28;20187;-83
2021/03/04 05:37:14;;;;;;;22.08;13.20;;;8.10;66.30;;;7.58;48.03;95193.19;5074012;28;20283;-83
2021/03/04 05:39:41;;;;;;;18.25;11.60;;;8.20;66.40;;;7.59;48.02;95183.56;5072929;28;20408;-83
2021/03/04 05:42:09;;;;;;;21.65;13.13;;;8.20;67.30;;;7.61;47.91;95192.03;5056103;28;20253;-83
2021/03/04 05:44:37;;;;;;;20.73;13.00;;;8.20;66.40;;;7.61;47.89;95186.81;5039736;28;20223;-83
2021/03/04 05:47:05;;;;;;;21.05;12.65;;;8.20;66.30;;;7.63;47.99;95187.44;5056141;28;20219;-83
2021/03/04 05:49:43;;;;;;;24.52;13.85;;;8.20;66.40;;;7.61;47.98;95184.22;5056185;28;20199;-83
2021/03/04 05:52:13;;;;;;;21.02;12.63;;;8.20;66.40;;;7.62;47.88;95186.66;5039656;28;20693;-82
2021/03/04 05:54:42;;;;;;;23.92;14.38;;;8.30;66.50;;;7.63;48.39;95180.44;5039123;28;20200;-82
2021/03/04 05:57:09;;;;;;;19.50;11.90;;;8.30;66.40;;;7.65;47.97;95182.88;5056115;28;20620;-83
2021/03/04 05:59:36;;;;;;;23.13;13.48;;;8.30;66.50;;;7.66;48.23;95174.88;5056084;28;20245;-83
2021/03/04 06:02:07;;;;;;;21.73;12.88;;;8.30;66.40;;;7.65;48.03;95178.50;5055867;28;20223;-83
2021/03/04 06:04:34;;;;;;;21.75;13.35;;;8.30;66.50;;;7.72;48.03;95181.25;5055967;28;20215;-82
2021/03/04 06:07:01;;;;;;;18.77;12.52;;;8.30;66.50;;;7.74;48.07;95178.47;5055574;28;20239;-83
2021/03/04 06:09:30;;;;;;;21.38;12.80;;;8.30;66.40;;;7.74;48.09;95176.69;5053497;28;20290;-83
2021/03/04 06:12:04;;;;;;;21.83;12.45;;;8.30;66.40;;;7.78;48.02;95183.19;5049168;28;20219;-84
2021/03/04 06:14:36;;;;;;;23.83;13.10;;;8.30;66.40;;;7.82;48.11;95181.06;5070043;28;20215;-83
2021/03/04 06:17:20;;;;;;;18.42;11.80;;;8.40;66.50;;;7.82;48.16;95181.06;5055010;28;20272;-84
2021/03/04 06:19:58;;;;;;;22.88;12.50;;;8.40;66.40;;;7.87;48.00;95180.56;5055178;28;20569;-83
2021/03/04 06:22:27;;;;;;;20.65;12.60;;;8.40;66.50;;;7.84;47.87;95177.28;5071534;28;20215;-83
2021/03/04 06:24:58;;;;;;;20.77;12.32;;;8.40;66.50;;;7.92;48.03;95183.47;5086105;28;20229;-83
2021/03/04 06:27:30;;;;;;;25.30;13.70;;;8.40;66.50;;;7.95;47.89;95177.94;5069278;28;20226;-83
2021/03/04 06:30:04;;;;;;;22.25;11.65;;;8.50;66.40;;;7.96;47.81;95163.88;5078773;28;20261;-83
2021/03/04 06:32:31;;;;;;;23.38;12.55;;;8.50;66.40;;;8.04;47.91;95170.88;5082750;28;20198;-81
2021/03/04 06:35:07;;;;;;;24.27;13.18;;;8.60;66.50;;;8.10;47.64;95168.38;5054176;28;20214;-82
2021/03/04 06:37:41;;;;;;;17.95;11.32;;;8.60;66.40;;;8.15;47.71;95173.94;5069608;28;20209;-83
2021/03/04 06:40:21;;;;;;;18.60;11.30;;;8.60;66.70;;;8.18;47.66;95173.56;5070184;28;20184;-82
2021/03/04 06:42:49;;;;;;;19.45;11.80;;;8.70;66.70;;;8.22;47.83;95176.66;5053237;28;20197;-82
2021/03/04 06:45:37;;;;;;;19.38;12.13;;;8.70;66.50;;;8.22;47.80;95171.44;5066588;28;20296;-82
2021/03/04 06:48:14;;;;;;;24.10;13.10;;;8.70;66.40;;;8.30;47.72;95175.78;5077964;28;20267;-82
2021/03/04 06:50:48;;;;;;;20.55;12.70;;;8.80;66.50;;;8.36;47.89;95179.53;5063489;28;20305;-82
2021/03/04 06:53:21;;;;;;;22.58;12.13;;;8.80;66.60;;;8.39;47.91;95169.56;5049701;28;20198;-82
2021/03/04 06:55:49;;;;;;;19.85;12.18;;;8.80;66.50;;;8.45;47.92;95173.28;5053753;28;20317;-82
2021/03/04 06:58:33;;;;;;;20.92;12.80;;;8.90;66.50;;;8.48;47.61;95179.03;5078539;28;20235;-82
2021/03/04 07:01:15;;;;;;;24.40;14.10;;;8.90;66.40;;;8.55;47.49;95179.13;5056271;28;20218;-82
2021/03/04 07:03:45;;;;;;;21.90;12.20;;;9.00;66.30;;;8.63;47.14;95173.06;5073275;28;20201;-82
2021/03/04 07:06:38;;;;;;;22.55;11.77;;;9.00;66.40;;;8.72;47.31;95176.44;5076303;28;20301;-82
2021/03/04 07:09:06;;;;;;;22.02;12.93;;;9.10;67.00;;;8.81;47.24;95164.91;5056851;28;20301;-81
2021/03/04 07:11:39;;;;;;;24.33;14.27;;;9.10;66.40;;;8.89;47.31;95164.06;5073455;28;20211;-82
2021/03/04 07:14:07;;;;;;;22.65;12.88;;;9.20;66.30;;;8.94;47.15;95161.72;5057198;28;20195;-82
2021/03/04 07:16:44;;;;;;;22.83;13.07;;;9.30;66.30;;;9.00;46.60;95155.78;5074488;28;20294;-81
2021/03/04 07:19:14;;;;;;;21.42;11.85;;;9.30;66.10;;;9.08;47.06;95152.28;5071849;28;20263;-81
2021/03/04 07:21:47;;;;;;;21.20;12.10;;;9.40;66.30;;;9.13;46.87;95156.00;5077594;28;20211;-83
2021/03/04 07:24:15;;;;;;;20.30;12.20;;;9.50;66.20;;;9.20;47.17;95152.69;5066376;28;20218;-82
2021/03/04 07:26:42;;;;;;;21.42;11.80;;;9.50;66.30;;;9.20;47.19;95134.34;5068785;28;20246;-82
2021/03/04 07:29:11;;;;;;;22.60;13.75;;;9.60;66.30;;;9.27;46.75;95143.94;5068033;28;20206;-82
2021/03/04 07:31:42;;;;;;;22.67;12.80;;;9.60;66.20;;;9.31;46.80;95147.00;5071600;28;20681;-82
2021/03/04 07:34:13;;;;;;;26.60;14.45;;;9.70;66.10;;;9.34;46.36;95164.16;5047684;28;20620;-82
2021/03/04 07:36:48;;;;;;;23.08;13.50;;;9.70;65.90;;;9.39;46.54;95169.69;5070961;28;20728;-84
2021/03/04 07:39:14;;;;;;;25.85;14.02;;;9.80;66.00;;;9.40;46.49;95172.13;5064549;28;20240;-82
2021/03/04 07:41:44;;;;;;;22.25;12.88;;;9.80;66.00;;;9.45;46.22;95169.78;5046251;28;20219;-82
2021/03/04 07:44:30;;;;;;;24.48;13.55;;;9.90;65.90;;;9.48;46.55;95175.66;5069737;28;20215;-82
2021/03/04 07:47:00;;;;;;;23.08;13.10;;;9.90;65.80;;;9.44;46.24;95165.53;5063934;28;20688;-82
2021/03/04 07:49:43;;;;;;;24.10;13.75;;;9.90;65.70;;;9.50;45.97;95173.69;5045482;28;20633;-82
2021/03/04 07:52:17;;;;;;;23.17;13.65;;;10.00;64.30;;;9.54;46.11;95177.56;5082056;28;20214;-82
2021/03/04 07:54:53;;;;;;;20.13;12.38;;;10.00;64.30;;;9.56;46.43;95167.75;5070363;28;20564;-82
2021/03/04 07:57:26;;;;;;;21.40;12.85;;;10.00;64.30;;;9.60;46.18;95161.13;5062143;28;20310;-82
2021/03/04 07:59:58;;;;;;;22.55;12.20;;;10.00;64.40;;;9.65;46.20;95168.47;5062337;28;20187;-81
2021/03/04 08:02:34;;;;;;;21.05;12.70;;;10.00;65.30;;;9.67;46.44;95169.91;5047660;28;20220;-82
2021/03/04 08:05:19;;;;;;;23.73;13.88;;;10.10;64.40;;;9.69;46.38;95169.72;5065825;28;20627;-82
2021/03/04 08:07:49;;;;;;;24.77;13.30;;;10.10;64.40;;;9.73;46.31;95163.94;5083320;28;20195;-82
2021/03/04 08:10:24;;;;;;;29.42;14.15;;;10.20;64.60;;;9.77;46.50;95162.59;5074773;28;20297;-82
2021/03/04 08:12:58;;;;;;;24.85;14.13;;;10.20;64.60;;;9.82;46.98;95161.25;5053214;28;20247;-82
2021/03/04 08:15:44;;;;;;;23.08;13.32;;;10.30;64.90;;;9.89;46.65;95172.63;5070622;28;20254;-83
2021/03/04 08:18:21;;;;;;;23.10;14.00;;;10.30;64.80;;;9.93;46.71;95164.19;5070130;28;20191;-81
2021/03/04 08:20:51;;;;;;;24.45;14.48;;;10.30;64.70;;;9.96;46.85;95163.06;5073354;28;20305;-82
2021/03/04 08:23:20;;;;;;;20.90;13.82;;;10.40;64.80;;;10.05;46.82;95161.16;5069079;28;20358;-81
2021/03/04 08:25:48;;;;;;;30.05;16.27;;;10.40;64.80;;;10.11;46.72;95165.66;5074400;28;20680;-82
2021/03/04 08:28:24;;;;;;;31.08;15.50;;;10.50;65.00;;;10.14;46.60;95154.78;5070360;28;20198;-82
2021/03/04 08:30:53;;;;;;;25.13;13.98;;;10.50;64.90;;;10.20;46.77;95155.88;5092459;28;20214;-82
2021/03/04 08:33:21;;;;;;;21.90;13.60;;;10.50;65.00;;;10.24;46.67;95152.72;5093365;28;20795;-81
2021/03/04 08:35:50;;;;;;;19.38;12.90;;;10.60;65.00;;;10.32;46.74;95150.97;5076251;28;20231;-82
2021/03/04 08:38:20;;;;;;;20.83;12.68;;;10.60;65.10;;;10.38;46.60;95151.06;5058526;28;20281;-82
2021/03/04 08:40:51;;;;;;;22.40;12.18;;;10.70;65.10;;;10.45;46.70;95150.34;5075660;28;20568;-82
2021/03/04 08:43:27;;;;;;;24.77;13.70;;;10.80;65.20;;;10.54;46.82;95144.00;5059231;28;20203;-81
2021/03/04 08:46:04;;;;;;;24.05;14.43;;;10.80;65.10;;;10.59;46.69;95151.31;5076530;28;20237;-81
2021/03/04 08:48:32;;;;;;;23.27;13.60;;;10.80;65.10;;;10.65;46.35;95153.19;5060101;28;20255;-83
2021/03/04 08:51:06;;;;;;;31.73;18.20;;;10.90;65.10;;;10.68;46.78;95145.75;5090970;28;20696;-83
2021/03/04 08:53:35;;;;;;;26.13;15.05;;;11.00;65.10;;;10.71;46.72;95142.75;5077401;28;20217;-83
2021/03/04 08:56:05;;;;;;;23.05;13.57;;;11.00;65.20;;;10.82;46.42;95149.31;5057317;28;20685;-83
2021/03/04 08:58:40;;;;;;;23.25;13.82;;;11.10;65.10;;;10.89;46.81;95144.13;5074446;28;20202;-83
2021/03/04 09:01:06;;;;;;;24.20;13.82;;;11.10;65.10;;;10.98;46.73;95140.38;5059225;28;20218;-83
2021/03/04 09:03:36;;;;;;;21.60;13.65;;;11.20;65.30;;;11.10;46.76;95134.63;5057736;28;20665;-83
2021/03/04 09:06:15;;;;;;;20.40;12.85;;;11.30;65.40;;;11.17;46.32;95138.94;5073955;28;20238;-83
2021/03/04 09:08:46;;;;;;;23.83;13.43;;;11.30;65.20;;;11.25;46.42;95127.47;5061301;28;20194;-82
2021/03/04 09:11:34;;;;;;;24.63;14.25;;;11.40;65.20;;;11.31;46.40;95134.56;5076722;28;20214;-83
2021/03/04 09:14:06;;;;;;;29.90;15.70;;;11.50;65.10;;;11.38;46.66;95132.81;5060995;28;20234;-83
2021/03/04 09:16:45;;;;;;;19.27;11.65;;;11.60;65.20;;;11.44;46.70;95126.00;5069978;28;20211;-82
2021/03/04 09:19:29;;;;;;;18.15;10.70;;;11.60;65.30;;;11.51;46.71;95131.28;5056928;28;20721;-83
2021/03/04 09:22:04;;;;;;;19.50;10.15;;;11.70;65.60;;;11.58;46.85;95123.47;5082467;28;20229;-83
2021/03/04 09:24:32;;;;;;;19.50;11.93;;;11.80;65.60;;;11.62;46.87;95122.88;5049491;28;20242;-83
2021/03/04 09:27:07;;;;;;;19.25;11.27;;;11.80;65.40;;;11.65;47.11;95117.22;5045596;28;20210;-82
2021/03/04 09:29:41;;;;;;;19.40;11.48;;;11.90;65.50;;;11.67;46.71;95114.44;5057236;28;20673;-84
2021/03/04 09:32:09;;;;;;;20.90;11.52;;;12.00;65.50;;;11.69;47.59;95107.16;5056633;28;20230;-82
2021/03/04 09:34:39;;;;;;;19.50;10.98;;;12.00;65.50;;;11.75;47.06;95103.75;5046251;28;20218;-83
2021/03/04 09:37:23;;;;;;;27.95;15.35;;;12.00;65.60;;;11.77;47.14;95096.47;5057088;28;20688;-83
2021/03/04 09:39:53;;;;;;;25.85;13.95;;;12.00;65.50;;;11.82;47.35;95085.38;5040497;28;20732;-83
2021/03/04 09:42:30;;;;;;;18.67;11.98;;;12.10;65.60;;;11.89;47.03;95083.59;5075527;28;20313;-83
2021/03/04 09:45:00;;;;;;;18.90;10.80;;;12.10;65.50;;;11.95;47.01;95066.22;5073226;28;20237;-83
2021/03/04 09:47:30;;;;;;;16.60;10.02;;;12.20;66.70;;;12.10;47.18;95064.28;5059214;28;20251;-83
2021/03/04 09:50:00;;;;;;;22.45;11.55;;;12.20;65.70;;;12.19;46.54;95069.38;5076870;28;20206;-83
2021/03/04 09:52:32;;;;;;;20.85;11.65;;;12.30;65.60;;;12.28;46.48;95047.13;5072933;28;20214;-83
2021/03/04 09:55:08;;;;;;;18.88;11.02;;;12.50;65.70;;;12.40;46.66;95048.19;5090052;28;20191;-83
2021/03/04 09:57:42;;;;;;;16.30;9.50;;;12.50;65.60;;;12.55;46.85;95041.94;5074526;28;20217;-82
2021/03/04 10:00:25;;;;;;;17.05;9.35;;;12.60;65.80;;;12.75;46.91;95034.84;5076036;28;20175;-82
2021/03/04 10:02:53;;;;;;;15.93;9.50;;;12.70;65.80;;;12.91;46.69;95030.22;5065120;28;20199;-82
2021/03/04 10:05:24;;;;;;;16.52;9.23;;;12.80;66.00;;;13.09;46.64;95029.59;5053655;28;20213;-82
2021/03/04 10:08:01;;;;;;;15.18;8.80;;;12.90;66.00;;;13.28;46.52;95035.84;5049485;28;20255;-82
2021/03/04 10:10:30;;;;;;;18.70;9.95;;;13.00;65.90;;;13.40;45.73;95022.88;5070080;28;20233;-82
2021/03/04 10:12:58;;;;;;;16.70;10.07;;;13.30;65.50;;;13.52;45.56;95023.84;5073779;28;20198;-83
2021/03/04 10:15:34;;;;;;;17.48;9.98;;;13.40;65.20;;;13.63;45.24;95021.59;5090935;28;20271;-83
2021/03/04 10:18:07;;;;;;;18.52;9.45;;;13.50;64.80;;;13.69;44.90;95020.78;5058268;28;20511;-83
2021/03/04 10:20:36;;;;;;;15.48;9.88;;;13.60;64.90;;;13.74;44.90;95021.78;5063595;28;20627;-83
2021/03/04 10:23:04;;;;;;;18.63;9.82;;;13.80;64.80;;;13.79;44.83;95031.66;5074564;28;20198;-82
2021/03/04 10:25:31;;;;;;;16.40;9.55;;;13.80;64.70;;;13.83;44.86;95030.25;5053762;28;20258;-83
2021/03/04 10:27:59;;;;;;;21.75;10.02;;;13.90;64.60;;;13.83;44.71;95030.25;5054366;28;20504;-82
2021/03/04 10:30:30;;;;;;;14.00;8.80;;;13.90;64.40;;;13.84;44.69;95028.41;5043899;28;20245;-83
2021/03/04 10:32:59;;;;;;;16.20;8.63;;;14.00;64.30;;;13.82;44.53;95027.81;5058932;28;20206;-83
2021/03/04 10:35:27;;;;;;;17.27;9.50;;;14.00;64.20;;;13.85;44.38;95045.84;5075306;28;20213;-83
2021/03/04 10:37:53;;;;;;;17.23;9.02;;;14.10;64.20;;;13.81;43.97;95029.63;5075809;28;20212;-83
2021/03/04 10:40:21;;;;;;;17.38;9.52;;;14.00;64.00;;;13.82;44.14;95026.00;5072569;28;20225;-83
2021/03/04 10:42:49;;;;;;;16.55;9.15;;;14.10;63.80;;;13.86;44.19;95019.28;5058783;28;20202;-83
2021/03/04 10:45:18;;;;;;;14.30;9.40;;;14.10;63.90;;;13.87;43.71;95025.38;5066762;28;20225;-82
2021/03/04 10:47:51;;;;;;;14.40;8.45;;;14.10;63.80;;;13.88;44.28;95030.44;5056016;28;20222;-82